sensor_id;sensor_type;location;lat;lon;timestamp;pressure;altitude;pressure_sealevel;temperature;humidity
71970;BME280;59838;52.152;5.436;2022-10-17T00:00:14;101772.69;;;13.01;99.79
71970;BME280;59838;52.152;5.436;2022-10-17T00:02:41;101768.00;;;12.96;99.82
71970;BME280;59838;52.152;5.436;2022-10-17T00:05:07;101770.78;;;12.95;99.93
71970;BME280;59838;52.152;5.436;2022-10-17T00:07:34;101773.91;;;12.90;99.97
71970;BME280;59838;52.152;5.436;2022-10-17T00:10:00;101774.25;;;12.87;99.98
71970;BME280;59838;52.152;5.436;2022-10-17T00:12:26;101775.59;;;12.83;99.94
71970;BME280;59838;52.152;5.436;2022-10-17T00:14:53;101772.34;;;12.81;99.89
71970;BME280;59838;52.152;5.436;2022-10-17T00:17:19;101770.28;;;12.76;99.86
71970;BME280;59838;52.152;5.436;2022-10-17T00:19:46;101749.75;;;12.73;99.99
71970;BME280;59838;52.152;5.436;2022-10-17T00:22:13;101753.00;;;12.75;100.00
71970;BME280;59838;52.152;5.436;2022-10-17T00:24:39;101753.78;;;12.76;100.00
71970;BME280;59838;52.152;5.436;2022-10-17T00:27:06;101750.22;;;12.77;100.00
71970;BME280;59838;52.152;5.436;2022-10-17T00:29:33;101746.63;;;12.78;100.00
71970;BME280;59838;52.152;5.436;2022-10-17T00:31:59;101741.22;;;12.79;100.00
71970;BME280;59838;52.152;5.436;2022-10-17T00:34:27;101745.00;;;12.77;100.00
71970;BME280;59838;52.152;5.436;2022-10-17T00:36:54;101740.13;;;12.74;100.00
71970;BME280;59838;52.152;5.436;2022-10-17T00:39:20;101741.59;;;12.76;100.00
71970;BME280;59838;52.152;5.436;2022-10-17T00:41:47;101742.56;;;12.75;100.00
71970;BME280;59838;52.152;5.436;2022-10-17T00:47:04;101745.81;;;12.77;100.00
71970;BME280;59838;52.152;5.436;2022-10-17T00:49:33;101743.00;;;12.79;100.00
71970;BME280;59838;52.152;5.436;2022-10-17T00:52:14;101740.22;;;12.80;100.00
71970;BME280;59838;52.152;5.436;2022-10-17T00:54:47;101736.19;;;12.78;100.00
71970;BME280;59838;52.152;5.436;2022-10-17T00:57:15;101734.03;;;12.82;100.00
71970;BME280;59838;52.152;5.436;2022-10-17T00:59:43;101742.66;;;12.82;100.00
71970;BME280;59838;52.152;5.436;2022-10-17T01:02:15;101741.88;;;12.82;100.00
71970;BME280;59838;52.152;5.436;2022-10-17T01:04:43;101739.44;;;12.80;100.00
71970;BME280;59838;52.152;5.436;2022-10-17T01:07:10;101738.81;;;12.78;100.00
71970;BME280;59838;52.152;5.436;2022-10-17T01:09:37;101737.53;;;12.74;100.00
71970;BME280;59838;52.152;5.436;2022-10-17T01:12:11;101727.59;;;12.69;100.00
71970;BME280;59838;52.152;5.436;2022-10-17T01:17:54;101719.84;;;12.61;100.00
71970;BME280;59838;52.152;5.436;2022-10-17T01:20:46;101717.94;;;12.55;100.00
71970;BME280;59838;52.152;5.436;2022-10-17T01:32:08;101713.78;;;12.69;100.00
71970;BME280;59838;52.152;5.436;2022-10-17T01:37:40;101715.03;;;12.73;100.00
71970;BME280;59838;52.152;5.436;2022-10-17T01:40:23;101704.78;;;12.71;100.00
71970;BME280;59838;52.152;5.436;2022-10-17T01:43:00;101703.63;;;12.74;100.00
71970;BME280;59838;52.152;5.436;2022-10-17T01:48:22;101716.84;;;12.72;100.00
71970;BME280;59838;52.152;5.436;2022-10-17T01:51:02;101710.00;;;12.71;100.00
71970;BME280;59838;52.152;5.436;2022-10-17T01:53:33;101705.59;;;12.72;100.00
71970;BME280;59838;52.152;5.436;2022-10-17T01:56:04;101708.22;;;12.72;100.00
71970;BME280;59838;52.152;5.436;2022-10-17T01:58:37;101706.22;;;12.74;100.00
71970;BME280;59838;52.152;5.436;2022-10-17T02:01:07;101701.19;;;12.72;100.00
71970;BME280;59838;52.152;5.436;2022-10-17T02:03:38;101687.53;;;12.70;100.00
71970;BME280;59838;52.152;5.436;2022-10-17T02:06:06;101677.28;;;12.69;100.00
71970;BME280;59838;52.152;5.436;2022-10-17T02:08:44;101661.00;;;12.67;100.00
71970;BME280;59838;52.152;5.436;2022-10-17T02:16:33;101656.06;;;12.72;100.00
71970;BME280;59838;52.152;5.436;2022-10-17T02:27:33;101652.97;;;12.91;100.00
71970;BME280;59838;52.152;5.436;2022-10-17T02:30:07;101648.38;;;12.93;100.00
71970;BME280;59838;52.152;5.436;2022-10-17T02:32:43;101656.00;;;12.95;100.00
71970;BME280;59838;52.152;5.436;2022-10-17T02:35:16;101657.16;;;12.92;100.00
71970;BME280;59838;52.152;5.436;2022-10-17T02:37:46;101655.84;;;12.96;100.00
71970;BME280;59838;52.152;5.436;2022-10-17T02:40:14;101648.81;;;12.97;100.00
71970;BME280;59838;52.152;5.436;2022-10-17T02:42:43;101649.66;;;12.97;100.00
71970;BME280;59838;52.152;5.436;2022-10-17T02:45:12;101646.47;;;13.02;100.00
71970;BME280;59838;52.152;5.436;2022-10-17T02:47:49;101638.78;;;13.09;100.00
71970;BME280;59838;52.152;5.436;2022-10-17T02:50:21;101648.19;;;13.10;100.00
71970;BME280;59838;52.152;5.436;2022-10-17T02:53:01;101643.44;;;13.13;100.00
71970;BME280;59838;52.152;5.436;2022-10-17T02:55:32;101644.25;;;13.14;100.00
71970;BME280;59838;52.152;5.436;2022-10-17T02:58:23;101653.69;;;13.15;100.00
71970;BME280;59838;52.152;5.436;2022-10-17T03:00:51;101645.50;;;13.18;100.00
71970;BME280;59838;52.152;5.436;2022-10-17T03:05:49;101643.53;;;13.20;100.00
71970;BME280;59838;52.152;5.436;2022-10-17T03:08:15;101659.56;;;13.17;100.00
71970;BME280;59838;52.152;5.436;2022-10-17T03:10:42;101653.50;;;13.16;100.00
71970;BME280;59838;52.152;5.436;2022-10-17T03:13:08;101653.69;;;13.15;100.00
71970;BME280;59838;52.152;5.436;2022-10-17T03:15:35;101653.97;;;13.20;100.00
71970;BME280;59838;52.152;5.436;2022-10-17T03:18:02;101650.81;;;13.25;100.00
71970;BME280;59838;52.152;5.436;2022-10-17T03:20:29;101651.63;;;13.25;100.00
71970;BME280;59838;52.152;5.436;2022-10-17T03:22:55;101651.28;;;13.28;100.00
71970;BME280;59838;52.152;5.436;2022-10-17T03:25:22;101653.81;;;13.37;100.00
71970;BME280;59838;52.152;5.436;2022-10-17T03:27:48;101645.06;;;13.44;100.00
71970;BME280;59838;52.152;5.436;2022-10-17T03:30:15;101651.19;;;13.51;100.00
71970;BME280;59838;52.152;5.436;2022-10-17T03:32:41;101642.75;;;13.49;100.00
71970;BME280;59838;52.152;5.436;2022-10-17T03:35:07;101648.16;;;13.48;100.00
71970;BME280;59838;52.152;5.436;2022-10-17T03:37:40;101660.84;;;13.51;100.00
71970;BME280;59838;52.152;5.436;2022-10-17T03:40:07;101663.88;;;13.55;100.00
71970;BME280;59838;52.152;5.436;2022-10-17T03:42:33;101657.13;;;13.60;100.00
71970;BME280;59838;52.152;5.436;2022-10-17T03:44:59;101658.75;;;13.61;100.00
71970;BME280;59838;52.152;5.436;2022-10-17T03:47:27;101661.63;;;13.66;100.00
71970;BME280;59838;52.152;5.436;2022-10-17T03:49:54;101679.97;;;13.73;100.00
71970;BME280;59838;52.152;5.436;2022-10-17T03:52:21;101672.50;;;13.70;100.00
71970;BME280;59838;52.152;5.436;2022-10-17T03:54:48;101666.47;;;13.69;100.00
71970;BME280;59838;52.152;5.436;2022-10-17T03:57:16;101674.94;;;13.71;100.00
71970;BME280;59838;52.152;5.436;2022-10-17T03:59:42;101670.72;;;13.70;100.00
71970;BME280;59838;52.152;5.436;2022-10-17T04:02:08;101666.91;;;13.73;100.00
71970;BME280;59838;52.152;5.436;2022-10-17T04:04:35;101669.53;;;13.73;100.00
71970;BME280;59838;52.152;5.436;2022-10-17T04:07:01;101667.75;;;13.74;100.00
71970;BME280;59838;52.152;5.436;2022-10-17T04:09:28;101665.56;;;13.77;100.00
71970;BME280;59838;52.152;5.436;2022-10-17T04:11:54;101666.38;;;13.78;100.00
71970;BME280;59838;52.152;5.436;2022-10-17T04:14:21;101667.16;;;13.78;100.00
71970;BME280;59838;52.152;5.436;2022-10-17T04:16:47;101664.56;;;13.78;100.00
71970;BME280;59838;52.152;5.436;2022-10-17T04:19:13;101671.22;;;13.81;100.00
71970;BME280;59838;52.152;5.436;2022-10-17T04:21:40;101664.38;;;13.80;100.00
71970;BME280;59838;52.152;5.436;2022-10-17T04:24:09;101671.22;;;13.81;100.00
71970;BME280;59838;52.152;5.436;2022-10-17T04:26:36;101674.81;;;13.80;100.00
71970;BME280;59838;52.152;5.436;2022-10-17T04:29:02;101682.66;;;13.80;100.00
71970;BME280;59838;52.152;5.436;2022-10-17T04:31:28;101677.81;;;13.77;100.00
71970;BME280;59838;52.152;5.436;2022-10-17T04:33:55;101673.41;;;13.77;100.00
71970;BME280;59838;52.152;5.436;2022-10-17T04:36:21;101675.19;;;13.77;100.00
71970;BME280;59838;52.152;5.436;2022-10-17T04:38:48;101674.56;;;13.75;100.00
71970;BME280;59838;52.152;5.436;2022-10-17T04:41:16;101685.81;;;13.75;100.00
71970;BME280;59838;52.152;5.436;2022-10-17T04:43:43;101675.19;;;13.77;100.00
71970;BME280;59838;52.152;5.436;2022-10-17T04:46:15;101674.03;;;13.79;100.00
71970;BME280;59838;52.152;5.436;2022-10-17T04:48:42;101690.50;;;13.80;100.00
71970;BME280;59838;52.152;5.436;2022-10-17T04:51:16;101692.56;;;13.84;100.00
71970;BME280;59838;52.152;5.436;2022-10-17T04:53:48;101705.69;;;13.91;100.00
71970;BME280;59838;52.152;5.436;2022-10-17T04:56:17;101709.56;;;13.95;100.00
71970;BME280;59838;52.152;5.436;2022-10-17T04:58:44;101703.81;;;14.00;100.00
71970;BME280;59838;52.152;5.436;2022-10-17T05:01:13;101702.34;;;13.97;100.00
71970;BME280;59838;52.152;5.436;2022-10-17T05:03:40;101704.97;;;13.97;100.00
71970;BME280;59838;52.152;5.436;2022-10-17T05:06:27;101703.81;;;14.00;100.00
71970;BME280;59838;52.152;5.436;2022-10-17T05:08:54;101711.91;;;14.05;100.00
71970;BME280;59838;52.152;5.436;2022-10-17T05:11:23;101704.50;;;14.08;100.00
71970;BME280;59838;52.152;5.436;2022-10-17T05:14:00;101705.69;;;14.06;100.00
71970;BME280;59838;52.152;5.436;2022-10-17T05:16:27;101712.69;;;14.05;100.00
71970;BME280;59838;52.152;5.436;2022-10-17T05:18:56;101708.91;;;14.08;100.00
71970;BME280;59838;52.152;5.436;2022-10-17T05:21:24;101706.94;;;14.10;100.00
71970;BME280;59838;52.152;5.436;2022-10-17T05:23:51;101709.53;;;14.10;100.00
71970;BME280;59838;52.152;5.436;2022-10-17T05:26:18;101703.34;;;14.11;100.00
71970;BME280;59838;52.152;5.436;2022-10-17T05:28:45;101705.94;;;14.11;100.00
71970;BME280;59838;52.152;5.436;2022-10-17T05:31:12;101703.94;;;14.13;100.00
71970;BME280;59838;52.152;5.436;2022-10-17T05:33:39;101705.56;;;14.14;100.00
71970;BME280;59838;52.152;5.436;2022-10-17T05:36:06;101716.66;;;14.16;100.00
71970;BME280;59838;52.152;5.436;2022-10-17T05:38:33;101721.50;;;14.19;100.00
71970;BME280;59838;52.152;5.436;2022-10-17T05:41:01;101725.53;;;14.22;100.00
71970;BME280;59838;52.152;5.436;2022-10-17T05:43:29;101719.16;;;14.24;100.00
71970;BME280;59838;52.152;5.436;2022-10-17T05:45:55;101729.41;;;14.26;100.00
71970;BME280;59838;52.152;5.436;2022-10-17T05:48:22;101734.34;;;14.36;100.00
71970;BME280;59838;52.152;5.436;2022-10-17T05:50:49;101729.72;;;14.38;100.00
71970;BME280;59838;52.152;5.436;2022-10-17T05:53:22;101728.13;;;14.37;100.00
71970;BME280;59838;52.152;5.436;2022-10-17T05:56:03;101720.47;;;14.35;100.00
71970;BME280;59838;52.152;5.436;2022-10-17T05:58:30;101727.31;;;14.36;100.00
71970;BME280;59838;52.152;5.436;2022-10-17T06:01:15;101716.22;;;14.34;100.00
71970;BME280;59838;52.152;5.436;2022-10-17T06:03:42;101714.22;;;14.36;100.00
71970;BME280;59838;52.152;5.436;2022-10-17T06:06:10;101703.03;;;14.42;100.00
71970;BME280;59838;52.152;5.436;2022-10-17T06:08:37;101710.88;;;14.42;100.00
71970;BME280;59838;52.152;5.436;2022-10-17T06:11:04;101716.72;;;14.44;100.00
71970;BME280;59838;52.152;5.436;2022-10-17T06:13:35;101733.06;;;14.47;100.00
71970;BME280;59838;52.152;5.436;2022-10-17T06:16:02;101725.03;;;14.48;100.00
71970;BME280;59838;52.152;5.436;2022-10-17T06:18:28;101729.84;;;14.51;100.00
71970;BME280;59838;52.152;5.436;2022-10-17T06:21:03;101719.41;;;14.51;100.00
71970;BME280;59838;52.152;5.436;2022-10-17T06:23:31;101726.06;;;14.54;100.00
71970;BME280;59838;52.152;5.436;2022-10-17T06:25:59;101724.72;;;14.58;100.00
71970;BME280;59838;52.152;5.436;2022-10-17T06:31:21;101747.78;;;14.69;100.00
71970;BME280;59838;52.152;5.436;2022-10-17T06:33:47;101755.88;;;14.74;100.00
71970;BME280;59838;52.152;5.436;2022-10-17T06:36:14;101752.88;;;14.77;100.00
71970;BME280;59838;52.152;5.436;2022-10-17T06:38:40;101763.84;;;14.88;100.00
71970;BME280;59838;52.152;5.436;2022-10-17T06:41:15;101756.59;;;15.11;100.00
71970;BME280;59838;52.152;5.436;2022-10-17T06:43:45;101765.28;;;15.18;100.00
71970;BME280;59838;52.152;5.436;2022-10-17T06:46:13;101765.09;;;15.20;100.00
71970;BME280;59838;52.152;5.436;2022-10-17T06:48:40;101764.69;;;15.16;100.00
71970;BME280;59838;52.152;5.436;2022-10-17T06:51:07;101763.41;;;15.12;100.00
71970;BME280;59838;52.152;5.436;2022-10-17T06:53:38;101774.06;;;15.11;100.00
71970;BME280;59838;52.152;5.436;2022-10-17T06:56:06;101773.28;;;15.10;100.00
71970;BME280;59838;52.152;5.436;2022-10-17T07:02:23;101788.00;;;15.11;100.00
71970;BME280;59838;52.152;5.436;2022-10-17T07:04:56;101786.97;;;15.12;100.00
71970;BME280;59838;52.152;5.436;2022-10-17T07:10:30;101790.25;;;15.14;100.00
71970;BME280;59838;52.152;5.436;2022-10-17T07:13:04;101790.25;;;15.14;100.00
71970;BME280;59838;52.152;5.436;2022-10-17T07:22:15;101804.78;;;15.24;100.00
71970;BME280;59838;52.152;5.436;2022-10-17T07:39:26;101806.84;;;15.28;100.00
71970;BME280;59838;52.152;5.436;2022-10-17T07:41:52;101809.25;;;15.30;100.00
71970;BME280;59838;52.152;5.436;2022-10-17T07:44:19;101810.72;;;15.32;100.00
71970;BME280;59838;52.152;5.436;2022-10-17T07:46:45;101809.09;;;15.31;100.00
71970;BME280;59838;52.152;5.436;2022-10-17T07:49:12;101821.00;;;15.34;100.00
71970;BME280;59838;52.152;5.436;2022-10-17T07:51:38;101832.06;;;15.36;100.00
71970;BME280;59838;52.152;5.436;2022-10-17T07:54:04;101831.28;;;15.35;100.00
71970;BME280;59838;52.152;5.436;2022-10-17T07:56:31;101844.38;;;15.35;100.00
71970;BME280;59838;52.152;5.436;2022-10-17T08:12:31;101962.63;;;15.39;100.00
71970;BME280;59838;52.152;5.436;2022-10-17T08:24:39;101965.25;;;15.39;100.00
71970;BME280;59838;52.152;5.436;2022-10-17T08:27:08;101954.41;;;15.42;100.00
71970;BME280;59838;52.152;5.436;2022-10-17T08:29:37;101946.16;;;15.45;100.00
71970;BME280;59838;52.152;5.436;2022-10-17T08:32:05;101947.59;;;15.48;100.00
71970;BME280;59838;52.152;5.436;2022-10-17T08:34:35;101945.03;;;15.54;100.00
71970;BME280;59838;52.152;5.436;2022-10-17T08:37:01;101955.94;;;15.58;100.00
71970;BME280;59838;52.152;5.436;2022-10-17T08:39:28;101968.66;;;15.61;100.00
71970;BME280;59838;52.152;5.436;2022-10-17T08:45:08;101981.84;;;15.68;100.00
71970;BME280;59838;52.152;5.436;2022-10-17T08:47:40;101990.31;;;15.70;100.00
71970;BME280;59838;52.152;5.436;2022-10-17T08:50:15;102004.03;;;15.72;100.00
71970;BME280;59838;52.152;5.436;2022-10-17T08:53:06;102016.75;;;15.75;100.00
71970;BME280;59838;52.152;5.436;2022-10-17T08:55:48;102026.28;;;15.76;100.00
71970;BME280;59838;52.152;5.436;2022-10-17T08:58:31;102034.75;;;15.78;100.00
71970;BME280;59838;52.152;5.436;2022-10-17T09:01:08;102027.69;;;15.79;100.00
71970;BME280;59838;52.152;5.436;2022-10-17T09:06:18;101993.25;;;15.82;100.00
71970;BME280;59838;52.152;5.436;2022-10-17T09:12:23;101962.22;;;15.85;100.00
71970;BME280;59838;52.152;5.436;2022-10-17T09:15:23;101936.47;;;15.89;100.00
71970;BME280;59838;52.152;5.436;2022-10-17T09:17:58;101923.81;;;15.93;100.00
71970;BME280;59838;52.152;5.436;2022-10-17T09:20:30;101944.38;;;15.96;100.00
71970;BME280;59838;52.152;5.436;2022-10-17T09:23:00;101944.81;;;15.99;100.00
71970;BME280;59838;52.152;5.436;2022-10-17T09:25:41;101938.34;;;16.02;100.00
71970;BME280;59838;52.152;5.436;2022-10-17T09:30:41;101959.97;;;16.04;100.00
71970;BME280;59838;52.152;5.436;2022-10-17T09:33:19;101984.34;;;16.04;100.00
71970;BME280;59838;52.152;5.436;2022-10-17T09:36:03;102000.28;;;16.03;100.00
71970;BME280;59838;52.152;5.436;2022-10-17T09:41:50;102030.09;;;16.02;100.00
71970;BME280;59838;52.152;5.436;2022-10-17T09:44:32;102010.94;;;16.01;100.00
71970;BME280;59838;52.152;5.436;2022-10-17T09:49:34;101980.09;;;16.03;100.00
71970;BME280;59838;52.152;5.436;2022-10-17T09:52:11;101962.41;;;16.05;100.00
71970;BME280;59838;52.152;5.436;2022-10-17T09:54:45;101964.44;;;16.10;100.00
71970;BME280;59838;52.152;5.436;2022-10-17T09:57:13;101977.59;;;16.17;100.00
71970;BME280;59838;52.152;5.436;2022-10-17T09:59:55;101976.19;;;16.21;100.00
71970;BME280;59838;52.152;5.436;2022-10-17T10:02:24;101980.06;;;16.25;100.00
71970;BME280;59838;52.152;5.436;2022-10-17T10:04:51;101982.91;;;16.30;100.00
71970;BME280;59838;52.152;5.436;2022-10-17T10:07:37;101991.00;;;16.35;100.00
71970;BME280;59838;52.152;5.436;2022-10-17T10:10:06;102013.44;;;16.38;100.00
71970;BME280;59838;52.152;5.436;2022-10-17T10:12:39;102025.91;;;16.36;100.00
71970;BME280;59838;52.152;5.436;2022-10-17T10:15:32;102027.53;;;16.37;100.00
71970;BME280;59838;52.152;5.436;2022-10-17T10:17:59;102028.16;;;16.39;100.00
71970;BME280;59838;52.152;5.436;2022-10-17T10:20:36;102038.44;;;16.40;100.00
71970;BME280;59838;52.152;5.436;2022-10-17T10:23:16;102052.00;;;16.44;100.00
71970;BME280;59838;52.152;5.436;2022-10-17T10:25:54;102067.34;;;16.47;100.00
71970;BME280;59838;52.152;5.436;2022-10-17T10:28:27;102081.28;;;16.48;100.00
71970;BME280;59838;52.152;5.436;2022-10-17T10:30:55;102083.28;;;16.45;100.00
71970;BME280;59838;52.152;5.436;2022-10-17T10:33:26;102083.47;;;16.44;100.00
71970;BME280;59838;52.152;5.436;2022-10-17T10:36:02;102100.41;;;16.41;100.00
71970;BME280;59838;52.152;5.436;2022-10-17T10:38:31;102089.91;;;16.41;100.00
71970;BME280;59838;52.152;5.436;2022-10-17T10:41:04;102093.94;;;16.44;100.00
71970;BME280;59838;52.152;5.436;2022-10-17T10:43:42;102099.84;;;16.46;100.00
71970;BME280;59838;52.152;5.436;2022-10-17T10:46:38;102092.41;;;16.50;100.00
71970;BME280;59838;52.152;5.436;2022-10-17T10:49:30;102098.91;;;16.54;100.00
71970;BME280;59838;52.152;5.436;2022-10-17T10:51:59;102097.69;;;16.56;100.00
71970;BME280;59838;52.152;5.436;2022-10-17T10:54:35;102091.81;;;16.54;100.00
71970;BME280;59838;52.152;5.436;2022-10-17T10:57:07;102101.09;;;16.57;100.00
71970;BME280;59838;52.152;5.436;2022-10-17T10:59:44;102109.63;;;16.59;100.00
71970;BME280;59838;52.152;5.436;2022-10-17T11:02:23;102112.44;;;16.57;100.00
71970;BME280;59838;52.152;5.436;2022-10-17T11:04:59;102110.81;;;16.56;100.00
71970;BME280;59838;52.152;5.436;2022-10-17T11:07:42;102113.66;;;16.61;100.00
71970;BME280;59838;52.152;5.436;2022-10-17T11:10:20;102121.75;;;16.67;100.00
71970;BME280;59838;52.152;5.436;2022-10-17T11:15:52;102122.06;;;16.78;100.00
71970;BME280;59838;52.152;5.436;2022-10-17T11:18:41;102118.69;;;16.85;100.00
71970;BME280;59838;52.152;5.436;2022-10-17T11:21:22;102122.56;;;16.89;100.00
71970;BME280;59838;52.152;5.436;2022-10-17T11:26:59;102136.13;;;16.99;100.00
71970;BME280;59838;52.152;5.436;2022-10-17T11:29:29;102145.84;;;17.05;100.00
71970;BME280;59838;52.152;5.436;2022-10-17T11:32:00;102141.00;;;17.02;100.00
71970;BME280;59838;52.152;5.436;2022-10-17T11:34:32;102148.44;;;16.98;100.00
71970;BME280;59838;52.152;5.436;2022-10-17T11:37:18;102159.53;;;16.94;100.00
71970;BME280;59838;52.152;5.436;2022-10-17T11:40:02;102166.19;;;16.90;100.00
71970;BME280;59838;52.152;5.436;2022-10-17T11:42:45;102165.09;;;16.84;100.00
71970;BME280;59838;52.152;5.436;2022-10-17T11:45:17;102167.09;;;16.82;100.00
71970;BME280;59838;52.152;5.436;2022-10-17T11:47:46;102169.09;;;16.80;100.00
71970;BME280;59838;52.152;5.436;2022-10-17T11:50:31;102170.72;;;16.81;100.00
71970;BME280;59838;52.152;5.436;2022-10-17T12:05:44;102167.81;;;16.97;100.00
71970;BME280;59838;52.152;5.436;2022-10-17T12:11:48;102177.03;;;17.15;100.00
71970;BME280;59838;52.152;5.436;2022-10-17T12:14:38;102181.50;;;17.21;100.00
71970;BME280;59838;52.152;5.436;2022-10-17T12:23:01;102172.28;;;17.32;100.00
71970;BME280;59838;52.152;5.436;2022-10-17T12:25:30;102174.72;;;17.33;100.00
71970;BME280;59838;52.152;5.436;2022-10-17T12:30:31;102184.78;;;17.30;100.00
71970;BME280;59838;52.152;5.436;2022-10-17T12:33:20;102183.56;;;17.26;100.00
71970;BME280;59838;52.152;5.436;2022-10-17T12:46:46;102187.53;;;17.15;100.00
71970;BME280;59838;52.152;5.436;2022-10-17T12:49:38;102200.84;;;17.13;100.00
71970;BME280;59838;52.152;5.436;2022-10-17T12:52:16;102203.66;;;17.12;100.00
71970;BME280;59838;52.152;5.436;2022-10-17T12:54:47;102200.81;;;17.07;100.00
71970;BME280;59838;52.152;5.436;2022-10-17T13:00:22;102209.81;;;16.97;100.00
71970;BME280;59838;52.152;5.436;2022-10-17T13:02:54;102204.97;;;16.94;100.00
71970;BME280;59838;52.152;5.436;2022-10-17T13:05:31;102212.84;;;16.94;100.00
71970;BME280;59838;52.152;5.436;2022-10-17T13:08:01;102209.59;;;16.92;100.00
71970;BME280;59838;52.152;5.436;2022-10-17T13:10:32;102216.06;;;16.90;100.00
71970;BME280;59838;52.152;5.436;2022-10-17T13:13:19;102223.09;;;16.89;100.00
71970;BME280;59838;52.152;5.436;2022-10-17T13:15:50;102231.38;;;16.86;100.00
71970;BME280;59838;52.152;5.436;2022-10-17T13:18:21;102227.66;;;16.80;100.00
71970;BME280;59838;52.152;5.436;2022-10-17T13:21:04;102240.78;;;16.80;100.00
71970;BME280;59838;52.152;5.436;2022-10-17T13:23:34;102242.41;;;16.81;100.00
71970;BME280;59838;52.152;5.436;2022-10-17T13:28:32;102246.28;;;16.86;100.00
71970;BME280;59838;52.152;5.436;2022-10-17T13:31:05;102254.16;;;16.86;100.00
71970;BME280;59838;52.152;5.436;2022-10-17T13:33:35;102258.63;;;16.85;100.00
71970;BME280;59838;52.152;5.436;2022-10-17T13:36:13;102264.47;;;16.87;100.00
71970;BME280;59838;52.152;5.436;2022-10-17T13:38:41;102266.53;;;16.92;100.00
71970;BME280;59838;52.152;5.436;2022-10-17T13:41:11;102271.84;;;16.98;100.00
71970;BME280;59838;52.152;5.436;2022-10-17T13:44:00;102281.22;;;17.08;100.00
71970;BME280;59838;52.152;5.436;2022-10-17T13:46:29;102278.22;;;17.11;100.00
71970;BME280;59838;52.152;5.436;2022-10-17T13:49:20;102282.88;;;17.15;100.00
71970;BME280;59838;52.152;5.436;2022-10-17T13:51:52;102288.94;;;17.16;100.00
71970;BME280;59838;52.152;5.436;2022-10-17T13:54:36;102284.50;;;17.16;100.00
71970;BME280;59838;52.152;5.436;2022-10-17T13:57:04;102301.09;;;17.17;100.00
71970;BME280;59838;52.152;5.436;2022-10-17T13:59:36;102299.81;;;17.13;100.00
71970;BME280;59838;52.152;5.436;2022-10-17T14:02:04;102296.81;;;17.16;100.00
71970;BME280;59838;52.152;5.436;2022-10-17T14:04:37;102301.88;;;17.17;100.00
71970;BME280;59838;52.152;5.436;2022-10-17T14:07:30;102300.44;;;17.15;100.00
71970;BME280;59838;52.152;5.436;2022-10-17T14:10:39;102297.44;;;17.18;100.00
71970;BME280;59838;52.152;5.436;2022-10-17T14:16:09;102298.31;;;17.25;100.00
71970;BME280;59838;52.152;5.436;2022-10-17T14:21:54;102295.50;;;17.27;100.00
71970;BME280;59838;52.152;5.436;2022-10-17T14:26:58;102293.06;;;17.25;100.00
71970;BME280;59838;52.152;5.436;2022-10-17T14:29:26;102287.81;;;17.25;100.00
71970;BME280;59838;52.152;5.436;2022-10-17T14:32:12;102292.28;;;17.31;100.00
71970;BME280;59838;52.152;5.436;2022-10-17T14:34:40;102288.28;;;17.35;100.00
71970;BME280;59838;52.152;5.436;2022-10-17T14:37:42;102293.19;;;17.45;100.00
71970;BME280;59838;52.152;5.436;2022-10-17T14:40:03;102305.97;;;17.55;100.00
71970;BME280;59838;52.152;5.436;2022-10-17T14:42:30;102303.75;;;17.59;100.00
71970;BME280;59838;52.152;5.436;2022-10-17T14:45:04;102303.59;;;17.67;100.00
71970;BME280;59838;52.152;5.436;2022-10-17T14:47:49;102302.22;;;17.71;100.00
71970;BME280;59838;52.152;5.436;2022-10-17T14:50:23;102300.22;;;17.73;100.00
71970;BME280;59838;52.152;5.436;2022-10-17T14:55:37;102302.00;;;17.66;100.00
71970;BME280;59838;52.152;5.436;2022-10-17T15:00:44;102304.34;;;17.54;100.00
71970;BME280;59838;52.152;5.436;2022-10-17T15:03:11;102310.38;;;17.48;100.00
71970;BME280;59838;52.152;5.436;2022-10-17T15:05:39;102321.66;;;17.42;100.00
71970;BME280;59838;52.152;5.436;2022-10-17T15:08:12;102329.50;;;17.35;100.00
71970;BME280;59838;52.152;5.436;2022-10-17T15:10:39;102335.31;;;17.30;100.00
71970;BME280;59838;52.152;5.436;2022-10-17T15:13:09;102335.50;;;17.29;100.00
71970;BME280;59838;52.152;5.436;2022-10-17T15:15:54;102327.00;;;17.27;100.00
71970;BME280;59838;52.152;5.436;2022-10-17T15:18:20;102326.56;;;17.23;100.00
71970;BME280;59838;52.152;5.436;2022-10-17T15:20:47;102335.84;;;17.19;100.00
71970;BME280;59838;52.152;5.436;2022-10-17T15:23:25;102342.09;;;17.18;100.00
71970;BME280;59838;52.152;5.436;2022-10-17T15:25:52;102345.91;;;17.15;100.00
71970;BME280;59838;52.152;5.436;2022-10-17T15:28:18;102348.72;;;17.14;100.00
71970;BME280;59838;52.152;5.436;2022-10-17T15:30:45;102345.28;;;17.13;100.00
71970;BME280;59838;52.152;5.436;2022-10-17T15:33:11;102339.22;;;17.13;100.00
71970;BME280;59838;52.152;5.436;2022-10-17T15:35:38;102349.91;;;17.11;100.00
71970;BME280;59838;52.152;5.436;2022-10-17T15:38:05;102358.78;;;17.10;100.00
71970;BME280;59838;52.152;5.436;2022-10-17T15:40:32;102353.28;;;17.05;100.00
71970;BME280;59838;52.152;5.436;2022-10-17T15:42:58;102360.09;;;16.99;100.00
71970;BME280;59838;52.152;5.436;2022-10-17T15:45:25;102371.16;;;16.95;100.00
71970;BME280;59838;52.152;5.436;2022-10-17T15:47:53;102369.91;;;16.91;100.00
71970;BME280;59838;52.152;5.436;2022-10-17T15:50:20;102379.16;;;16.87;100.00
71970;BME280;59838;52.152;5.436;2022-10-17T15:52:48;102380.50;;;16.82;100.00